createdAt,value
2022-12-06T09:07:21.255Z,86.03
2022-12-06T09:10:07.132Z,87.17
2022-12-06T09:12:52.378Z,87.06
2022-12-06T09:15:38.643Z,87.42
2022-12-06T09:18:24.544Z,86.98
2022-12-06T09:21:16.427Z,86.19
2022-12-06T09:24:02.202Z,86.10
2022-12-06T09:26:47.575Z,84.47
2022-12-06T09:29:40.292Z,83.29
2022-12-06T09:32:25.809Z,83.07
2022-12-06T09:35:15.062Z,82.80
2022-12-06T09:38:03.481Z,82.96
2022-12-06T09:41:11.432Z,83.74
2022-12-06T09:44:17.895Z,96.53
2022-12-06T09:47:20.870Z,90.30
2022-12-06T09:50:49.140Z,84.34
2022-12-06T09:54:00.730Z,84.42
2022-12-06T09:57:00.968Z,83.19
2022-12-06T10:00:01.040Z,83.20
2022-12-06T10:03:19.106Z,84.57
2022-12-06T10:06:12.058Z,83.95
2022-12-06T10:09:33.660Z,83.69
2022-12-06T10:12:28.054Z,84.00
2022-12-06T10:15:39.592Z,83.62
2022-12-06T10:18:44.304Z,84.71
2022-12-06T10:21:53.144Z,85.34
2022-12-06T10:25:24.783Z,85.16
2022-12-06T10:28:22.518Z,82.79
2022-12-06T10:31:27.990Z,84.22
2022-12-06T10:34:32.530Z,84.59
2022-12-06T10:37:58.346Z,84.11
2022-12-06T10:41:05.332Z,84.66
2022-12-06T10:43:58.176Z,84.67
2022-12-06T10:47:06.320Z,84.16
2022-12-06T10:49:57.343Z,85.38
2022-12-06T10:52:48.673Z,85.88
2022-12-06T10:55:58.139Z,85.07
2022-12-06T10:58:51.399Z,84.29
2022-12-06T11:01:43.632Z,84.42
2022-12-06T11:04:34.131Z,83.81
2022-12-06T11:07:27.170Z,84.39
2022-12-06T11:10:19.273Z,83.69
2022-12-06T11:13:30.882Z,84.66
2022-12-06T11:16:24.493Z,84.26
2022-12-06T11:19:25.311Z,84.80
2022-12-06T11:22:42.469Z,84.93
2022-12-06T11:26:15.061Z,85.25
2022-12-06T11:29:09.918Z,84.56
2022-12-06T11:31:59.913Z,85.68
2022-12-06T11:35:12.942Z,86.27
2022-12-06T11:38:03.345Z,86.64
2022-12-06T11:40:51.752Z,87.41
2022-12-06T11:43:38.016Z,86.54
2022-12-06T11:46:24.658Z,85.81
2022-12-06T11:49:28.644Z,85.31
2022-12-06T11:52:20.463Z,84.92
2022-12-06T11:55:18.688Z,84.96
2022-12-06T11:58:09.415Z,85.23
2022-12-06T12:01:16.194Z,84.56
2022-12-06T12:04:30.633Z,82.54
2022-12-06T12:07:18.534Z,83.66
2022-12-06T12:10:27.713Z,82.80
2022-12-06T12:13:31.546Z,81.82
2022-12-06T12:16:22.510Z,82.37
2022-12-06T12:19:35.501Z,82.87
2022-12-06T12:22:42.766Z,82.67
2022-12-06T12:25:34.647Z,82.58
2022-12-06T12:28:35.078Z,81.59
2022-12-06T12:31:26.291Z,82.22
2022-12-06T12:34:20.326Z,82.87
2022-12-06T12:37:20.960Z,82.07
2022-12-06T12:40:22.301Z,81.45
2022-12-06T12:43:15.565Z,81.40
2022-12-06T12:46:21.831Z,82.43
2022-12-06T12:49:25.873Z,82.15
2022-12-06T12:52:50.842Z,82.70
2022-12-06T12:55:39.176Z,82.75
2022-12-06T12:58:24.482Z,83.44
2022-12-06T13:01:25.143Z,82.19
2022-12-06T13:04:10.622Z,82.69
2022-12-06T13:06:59.614Z,83.05
2022-12-06T13:09:53.823Z,82.04
2022-12-06T13:12:43.219Z,83.12
2022-12-06T13:15:36.044Z,81.78
2022-12-06T13:18:37.921Z,82.42
2022-12-06T13:21:30.077Z,82.51
2022-12-06T13:24:23.934Z,82.67
2022-12-06T13:27:16.545Z,82.66
2022-12-06T13:30:12.607Z,82.73
2022-12-06T13:33:07.708Z,82.46
2022-12-06T13:36:02.196Z,83.08
2022-12-06T13:38:50.351Z,83.05
2022-12-06T13:41:54.763Z,82.74
2022-12-06T13:44:44.588Z,82.56
2022-12-06T13:47:29.873Z,83.32
2022-12-06T13:50:17.911Z,83.13
2022-12-06T13:53:04.837Z,83.97
2022-12-06T13:56:03.636Z,83.89
2022-12-06T13:58:53.146Z,83.42
2022-12-06T14:01:47.421Z,84.02
2022-12-06T14:04:38.737Z,84.39
2022-12-06T14:07:44.400Z,84.39
2022-12-06T14:10:29.991Z,83.69
2022-12-06T14:13:19.873Z,84.19
2022-12-06T14:16:07.231Z,84.88
2022-12-06T14:18:52.548Z,84.94
2022-12-06T14:21:42.104Z,85.82
2022-12-06T14:24:30.490Z,86.44
2022-12-06T14:27:20.749Z,85.74
2022-12-06T14:30:09.317Z,86.02
2022-12-06T14:32:59.539Z,85.83
2022-12-06T14:35:52.769Z,85.70
2022-12-06T14:38:38.318Z,86.44
2022-12-06T14:41:48.228Z,86.49
2022-12-06T14:44:46.529Z,86.77
2022-12-06T14:47:34.087Z,87.05
2022-12-06T14:50:42.120Z,88.08
2022-12-06T14:53:37.933Z,88.37
2022-12-06T14:56:34.256Z,88.72
2022-12-06T14:59:47.399Z,89.00
2022-12-06T15:02:31.835Z,89.28
2022-12-06T15:05:57.105Z,89.59
2022-12-06T15:08:53.485Z,89.51
2022-12-06T15:12:02.957Z,89.05
2022-12-06T15:14:51.327Z,89.80
2022-12-06T15:17:44.465Z,90.19
2022-12-06T15:20:30.020Z,90.66
2022-12-06T15:23:38.945Z,90.21
2022-12-06T15:26:25.160Z,91.13
2022-12-06T15:29:10.687Z,91.41
2022-12-06T15:31:56.488Z,91.83
2022-12-06T15:34:42.242Z,92.13
2022-12-06T15:37:38.704Z,92.13
2022-12-06T15:40:25.451Z,93.44
2022-12-06T15:43:29.952Z,93.04
2022-12-06T15:46:24.994Z,94.01
2022-12-06T15:49:15.759Z,93.69
2022-12-06T15:52:00.972Z,94.96
2022-12-06T15:54:46.625Z,95.22
2022-12-06T15:57:31.757Z,94.88
2022-12-06T16:00:17.500Z,95.55
2022-12-06T16:03:03.534Z,94.11
2022-12-06T16:05:49.002Z,94.85
2022-12-06T16:08:34.216Z,95.48
2022-12-06T16:11:22.131Z,94.11
2022-12-06T16:14:07.940Z,93.91
2022-12-06T16:16:53.408Z,93.96
2022-12-06T16:19:57.345Z,94.99
2022-12-06T16:23:01.456Z,95.43
2022-12-06T16:25:47.293Z,95.99
2022-12-06T16:28:33.187Z,95.13
2022-12-06T16:31:18.756Z,96.06
2022-12-06T16:34:04.286Z,97.44
2022-12-06T16:36:55.051Z,96.19
2022-12-06T16:39:41.235Z,96.44
2022-12-06T16:42:26.290Z,96.22
2022-12-06T16:45:12.354Z,97.15
2022-12-06T16:47:57.533Z,97.75
2022-12-06T16:50:43.746Z,97.12
2022-12-06T16:53:29.502Z,97.43
2022-12-06T16:56:15.114Z,96.71
2022-12-06T16:59:01.266Z,96.81
2022-12-06T17:01:51.667Z,95.36
2022-12-06T17:04:36.778Z,96.29
2022-12-06T17:07:22.069Z,97.63
2022-12-06T17:10:07.845Z,97.54
2022-12-06T17:12:53.127Z,97.88
2022-12-06T17:15:38.497Z,97.54
2022-12-06T17:18:23.672Z,97.69
2022-12-06T17:21:12.041Z,96.37
2022-12-06T17:24:00.928Z,94.64
2022-12-06T17:26:46.433Z,95.59
2022-12-06T17:29:31.915Z,95.06
2022-12-06T17:32:17.999Z,95.63
2022-12-06T17:35:03.681Z,95.80
2022-12-06T17:37:51.610Z,96.17
2022-12-06T17:40:36.557Z,98.22
2022-12-06T17:43:21.918Z,97.51
2022-12-06T17:46:08.312Z,95.86
2022-12-06T17:48:55.084Z,96.32
2022-12-06T17:51:40.583Z,97.53
2022-12-06T17:54:28.627Z,97.78
2022-12-06T17:57:17.941Z,98.60
2022-12-06T18:00:05.089Z,97.88
2022-12-06T18:02:52.100Z,98.08
2022-12-06T18:05:39.319Z,99.11
2022-12-06T18:08:24.539Z,99.83
2022-12-06T18:11:09.702Z,100.00
2022-12-06T18:13:56.127Z,99.19
2022-12-06T18:16:43.278Z,98.60
2022-12-06T18:19:28.948Z,97.46
2022-12-06T18:22:15.344Z,97.51
2022-12-06T18:25:01.533Z,97.59
2022-12-06T18:27:48.907Z,97.97
2022-12-06T18:30:34.396Z,97.97
2022-12-06T18:33:21.970Z,97.48
2022-12-06T18:36:10.325Z,97.04
2022-12-06T18:39:00.954Z,96.08
2022-12-06T18:41:46.408Z,96.52
2022-12-06T18:44:31.807Z,96.25
2022-12-06T18:47:17.662Z,96.33
2022-12-06T18:50:03.408Z,94.51
2022-12-06T18:52:50.711Z,94.76
2022-12-06T18:55:43.747Z,94.62
2022-12-06T18:58:29.249Z,94.83
2022-12-06T19:01:17.611Z,95.66
2022-12-06T19:04:08.252Z,95.57
2022-12-06T19:06:54.368Z,94.22
2022-12-06T19:09:39.730Z,95.07
2022-12-06T19:12:24.842Z,94.92
2022-12-06T19:15:11.240Z,93.89
2022-12-06T19:17:56.489Z,93.98
2022-12-06T19:20:41.884Z,94.30
2022-12-06T19:23:31.172Z,93.83
2022-12-06T19:26:16.492Z,93.47
2022-12-06T19:29:03.608Z,94.14
2022-12-06T19:31:49.600Z,94.35
2022-12-06T19:34:34.915Z,92.90
2022-12-06T19:37:20.326Z,92.93
2022-12-06T19:40:08.709Z,93.27
2022-12-06T19:43:16.023Z,92.79
2022-12-06T19:46:33.069Z,93.00
2022-12-06T19:49:20.512Z,92.62
2022-12-06T19:52:05.885Z,93.68
2022-12-06T19:54:51.204Z,94.27
2022-12-06T19:57:40.280Z,94.18
2022-12-06T20:00:30.224Z,93.90
2022-12-06T20:03:15.785Z,94.28
2022-12-06T20:06:08.374Z,93.00
2022-12-06T20:08:56.141Z,93.28
2022-12-06T20:12:04.526Z,91.29
2022-12-06T20:14:52.251Z,91.54
2022-12-06T20:17:38.621Z,92.92
2022-12-06T20:20:24.680Z,92.18
2022-12-06T20:23:10.730Z,92.38
2022-12-06T20:26:02.647Z,91.72
2022-12-06T20:28:53.607Z,91.42
2022-12-06T20:31:39.754Z,91.20
2022-12-06T20:34:27.469Z,91.50
2022-12-06T20:37:13.574Z,92.16
2022-12-06T20:40:00.333Z,92.42
2022-12-06T20:42:47.048Z,92.09
2022-12-06T20:45:33.038Z,92.48
2022-12-06T20:48:21.703Z,92.02
2022-12-06T20:51:09.426Z,92.74
2022-12-06T20:53:57.922Z,92.73
2022-12-06T20:56:43.796Z,93.14
2022-12-06T20:59:29.529Z,93.90
2022-12-06T21:02:15.556Z,94.04
2022-12-06T21:05:00.837Z,93.16
2022-12-06T21:07:46.099Z,92.87
2022-12-06T21:10:31.608Z,94.15
2022-12-06T21:13:17.111Z,94.67
2022-12-06T21:16:08.881Z,93.96
2022-12-06T21:19:05.868Z,94.77
2022-12-06T21:22:14.791Z,95.15
2022-12-06T21:24:59.899Z,95.23
2022-12-06T21:27:45.568Z,95.90
2022-12-06T21:30:32.355Z,96.37
2022-12-06T21:33:18.919Z,95.56
2022-12-06T21:36:05.965Z,95.52
2022-12-06T21:38:52.185Z,96.17
2022-12-06T21:41:38.203Z,97.32
2022-12-06T21:44:24.381Z,97.45
2022-12-06T21:47:10.124Z,96.31
2022-12-06T21:49:56.759Z,96.30
2022-12-06T21:52:43.280Z,95.33
2022-12-06T21:55:32.484Z,94.42
2022-12-06T21:58:18.694Z,94.47
2022-12-06T22:01:10.441Z,94.42
2022-12-06T22:04:03.332Z,92.39
2022-12-06T22:06:50.127Z,93.04
2022-12-06T22:09:51.285Z,93.49
2022-12-06T22:12:49.249Z,93.28
2022-12-06T22:15:39.568Z,93.96
2022-12-06T22:18:25.397Z,93.70
2022-12-06T22:21:17.949Z,92.14
2022-12-06T22:24:04.398Z,93.01
2022-12-06T22:26:55.939Z,92.32
2022-12-06T22:29:49.190Z,92.54
2022-12-06T22:32:42.996Z,91.93
2022-12-06T22:35:29.416Z,93.13
2022-12-06T22:38:18.920Z,92.80
2022-12-06T22:41:06.943Z,92.93
2022-12-06T22:44:02.134Z,93.15
2022-12-06T22:46:51.312Z,93.97
2022-12-06T22:49:36.683Z,93.33
2022-12-06T22:52:21.732Z,93.22
2022-12-06T22:55:07.251Z,93.12
2022-12-06T22:57:53.190Z,94.41
2022-12-06T23:00:38.497Z,94.96
2022-12-06T23:03:23.938Z,95.59
2022-12-06T23:06:09.438Z,95.89
2022-12-06T23:08:55.256Z,94.55
2022-12-06T23:11:40.569Z,93.93
2022-12-06T23:14:26.036Z,92.24
2022-12-06T23:17:11.171Z,93.35
2022-12-06T23:19:56.704Z,93.50
2022-12-06T23:22:42.184Z,94.02
2022-12-06T23:25:27.379Z,92.44
2022-12-06T23:28:12.531Z,91.76
2022-12-06T23:31:11.538Z,90.44
2022-12-06T23:34:06.621Z,91.20
2022-12-06T23:36:53.114Z,90.46
2022-12-06T23:39:38.618Z,89.92
2022-12-06T23:42:24.064Z,88.06
2022-12-06T23:45:10.135Z,88.29
2022-12-06T23:47:55.232Z,86.75
2022-12-06T23:50:40.843Z,87.66
2022-12-06T23:53:26.423Z,87.89
2022-12-06T23:56:14.072Z,86.52
2022-12-06T23:59:00.406Z,86.43
